sensor_id;sensor_type;location;lat;lon;timestamp;pressure;altitude;pressure_sealevel;temperature;humidity
498;BME280;39559;48.630;9.162;2023-04-02T00:07:52;96693.97;;;5.19;100.00
498;BME280;39559;48.630;9.162;2023-04-02T00:15:35;96702.00;;;5.10;100.00
498;BME280;39559;48.630;9.162;2023-04-02T00:18:02;96703.25;;;5.23;100.00
498;BME280;39559;48.630;9.162;2023-04-02T00:20:33;96701.09;;;5.11;100.00
498;BME280;39559;48.630;9.162;2023-04-02T00:23:01;96707.72;;;5.18;100.00
498;BME280;39559;48.630;9.162;2023-04-02T00:26:36;96705.13;;;5.18;100.00
498;BME280;39559;48.630;9.162;2023-04-02T00:29:04;96709.22;;;5.24;100.00
498;BME280;39559;48.630;9.162;2023-04-02T00:31:31;96699.94;;;5.19;100.00
498;BME280;39559;48.630;9.162;2023-04-02T00:33:59;96710.25;;;5.19;100.00
498;BME280;39559;48.630;9.162;2023-04-02T00:36:28;96703.00;;;5.31;100.00
498;BME280;39559;48.630;9.162;2023-04-02T00:38:57;96703.03;;;5.29;100.00
498;BME280;39559;48.630;9.162;2023-04-02T00:41:26;96702.94;;;5.32;100.00
498;BME280;39559;48.630;9.162;2023-04-02T00:43:55;96711.56;;;5.31;100.00
498;BME280;39559;48.630;9.162;2023-04-02T00:46:31;96717.34;;;5.38;100.00
498;BME280;39559;48.630;9.162;2023-04-02T00:52:42;96711.75;;;5.25;100.00
498;BME280;39559;48.630;9.162;2023-04-02T00:55:17;96709.88;;;5.30;100.00
498;BME280;39559;48.630;9.162;2023-04-02T00:57:47;96709.09;;;5.28;100.00
498;BME280;39559;48.630;9.162;2023-04-02T01:00:18;96709.97;;;5.27;100.00
498;BME280;39559;48.630;9.162;2023-04-02T01:05:41;96714.28;;;5.27;100.00
498;BME280;39559;48.630;9.162;2023-04-02T01:10:59;96723.31;;;5.13;100.00
498;BME280;39559;48.630;9.162;2023-04-02T01:16:49;96726.88;;;5.09;100.00
498;BME280;39559;48.630;9.162;2023-04-02T01:24:43;96729.31;;;5.14;100.00
498;BME280;39559;48.630;9.162;2023-04-02T01:27:20;96729.31;;;5.14;100.00
498;BME280;39559;48.630;9.162;2023-04-02T01:29:52;96725.16;;;5.10;100.00
498;BME280;39559;48.630;9.162;2023-04-02T01:32:23;96731.97;;;5.11;100.00
498;BME280;39559;48.630;9.162;2023-04-02T01:34:51;96725.34;;;5.04;100.00
498;BME280;39559;48.630;9.162;2023-04-02T01:38:17;96729.59;;;5.05;100.00
498;BME280;39559;48.630;9.162;2023-04-02T01:41:13;96732.41;;;4.98;100.00
498;BME280;39559;48.630;9.162;2023-04-02T01:43:54;96740.00;;;5.02;100.00
498;BME280;39559;48.630;9.162;2023-04-02T01:46:31;96740.66;;;5.08;100.00
498;BME280;39559;48.630;9.162;2023-04-02T01:49:13;96746.31;;;5.18;100.00
498;BME280;39559;48.630;9.162;2023-04-02T01:51:42;96746.13;;;5.24;100.00
498;BME280;39559;48.630;9.162;2023-04-02T01:54:09;96745.97;;;5.29;100.00
498;BME280;39559;48.630;9.162;2023-04-02T01:56:37;96747.31;;;5.41;100.00
498;BME280;39559;48.630;9.162;2023-04-02T01:59:05;96745.81;;;5.33;100.00
498;BME280;39559;48.630;9.162;2023-04-02T02:02:11;96748.22;;;5.38;100.00
498;BME280;39559;48.630;9.162;2023-04-02T02:04:38;96744.72;;;5.41;100.00
498;BME280;39559;48.630;9.162;2023-04-02T02:07:04;96749.66;;;5.47;100.00
498;BME280;39559;48.630;9.162;2023-04-02T02:09:33;96751.59;;;5.40;100.00
498;BME280;39559;48.630;9.162;2023-04-02T02:12:03;96742.66;;;5.25;100.00
498;BME280;39559;48.630;9.162;2023-04-02T02:14:30;96749.13;;;5.37;100.00
498;BME280;39559;48.630;9.162;2023-04-02T02:16:58;96760.97;;;5.43;100.00
498;BME280;39559;48.630;9.162;2023-04-02T02:19:34;96760.13;;;5.42;100.00
498;BME280;39559;48.630;9.162;2023-04-02T02:22:23;96763.69;;;5.38;100.00
498;BME280;39559;48.630;9.162;2023-04-02T02:26:12;96765.41;;;5.37;100.00
498;BME280;39559;48.630;9.162;2023-04-02T02:28:40;96768.81;;;5.38;100.00
498;BME280;39559;48.630;9.162;2023-04-02T02:31:15;96763.84;;;5.33;100.00
498;BME280;39559;48.630;9.162;2023-04-02T02:33:49;96763.97;;;5.29;100.00
498;BME280;39559;48.630;9.162;2023-04-02T02:39:24;96771.75;;;5.27;100.00
498;BME280;39559;48.630;9.162;2023-04-02T02:42:50;96775.19;;;5.28;100.00
498;BME280;39559;48.630;9.162;2023-04-02T02:44:51;96773.72;;;5.21;100.00
498;BME280;39559;48.630;9.162;2023-04-02T02:47:25;96778.16;;;5.15;100.00
498;BME280;39559;48.630;9.162;2023-04-02T02:50:13;96772.22;;;5.13;100.00
498;BME280;39559;48.630;9.162;2023-04-02T02:52:46;96774.63;;;5.18;100.00
498;BME280;39559;48.630;9.162;2023-04-02T02:55:17;96776.50;;;5.13;100.00
498;BME280;39559;48.630;9.162;2023-04-02T02:57:50;96777.31;;;5.15;100.00
498;BME280;39559;48.630;9.162;2023-04-02T03:00:21;96779.69;;;5.21;100.00
498;BME280;39559;48.630;9.162;2023-04-02T03:02:52;96781.38;;;5.22;100.00
498;BME280;39559;48.630;9.162;2023-04-02T03:05:23;96790.53;;;5.04;100.00
498;BME280;39559;48.630;9.162;2023-04-02T03:07:51;96791.94;;;5.13;100.00
498;BME280;39559;48.630;9.162;2023-04-02T03:14:25;96793.78;;;5.09;100.00
498;BME280;39559;48.630;9.162;2023-04-02T03:16:59;96799.28;;;5.25;100.00
498;BME280;39559;48.630;9.162;2023-04-02T03:20:25;96792.19;;;5.05;100.00
498;BME280;39559;48.630;9.162;2023-04-02T03:22:48;96796.31;;;5.11;100.00
498;BME280;39559;48.630;9.162;2023-04-02T03:25:31;96804.81;;;5.13;100.00
498;BME280;39559;48.630;9.162;2023-04-02T03:28:05;96810.88;;;5.12;100.00
498;BME280;39559;48.630;9.162;2023-04-02T03:30:43;96812.53;;;5.13;100.00
498;BME280;39559;48.630;9.162;2023-04-02T03:33:36;96813.16;;;5.21;100.00
498;BME280;39559;48.630;9.162;2023-04-02T03:38:45;96811.78;;;5.09;100.00
498;BME280;39559;48.630;9.162;2023-04-02T03:41:09;96831.41;;;4.85;100.00
498;BME280;39559;48.630;9.162;2023-04-02T03:43:44;96836.09;;;4.72;100.00
498;BME280;39559;48.630;9.162;2023-04-02T03:46:21;96833.19;;;4.83;100.00
498;BME280;39559;48.630;9.162;2023-04-02T03:48:53;96831.47;;;4.84;100.00
498;BME280;39559;48.630;9.162;2023-04-02T03:51:33;96832.91;;;4.92;100.00
498;BME280;39559;48.630;9.162;2023-04-02T03:54:00;96832.53;;;5.05;100.00
498;BME280;39559;48.630;9.162;2023-04-02T03:56:31;96838.59;;;5.30;100.00
498;BME280;39559;48.630;9.162;2023-04-02T04:02:22;96847.97;;;5.05;100.00
498;BME280;39559;48.630;9.162;2023-04-02T04:04:52;96842.84;;;5.05;100.00
498;BME280;39559;48.630;9.162;2023-04-02T04:07:27;96849.19;;;4.93;100.00
498;BME280;39559;48.630;9.162;2023-04-02T04:09:55;96850.03;;;4.93;100.00
498;BME280;39559;48.630;9.162;2023-04-02T04:15:19;96855.06;;;4.96;100.00
498;BME280;39559;48.630;9.162;2023-04-02T04:17:46;96852.63;;;4.93;100.00
498;BME280;39559;48.630;9.162;2023-04-02T04:31:46;96869.59;;;4.99;100.00
498;BME280;39559;48.630;9.162;2023-04-02T04:34:33;96870.03;;;4.84;100.00
498;BME280;39559;48.630;9.162;2023-04-02T04:37:02;96884.66;;;4.83;100.00
498;BME280;39559;48.630;9.162;2023-04-02T04:39:44;96880.41;;;4.82;100.00
498;BME280;39559;48.630;9.162;2023-04-02T04:42:18;96887.59;;;4.99;100.00
498;BME280;39559;48.630;9.162;2023-04-02T04:47:19;96881.19;;;4.84;100.00
498;BME280;39559;48.630;9.162;2023-04-02T04:50:24;96891.94;;;4.98;100.00
498;BME280;39559;48.630;9.162;2023-04-02T04:52:52;96894.41;;;5.00;100.00
498;BME280;39559;48.630;9.162;2023-04-02T04:57:47;96889.13;;;4.76;100.00
498;BME280;39559;48.630;9.162;2023-04-02T05:03:30;96904.03;;;4.95;100.00
498;BME280;39559;48.630;9.162;2023-04-02T05:06:12;96899.53;;;5.02;100.00
498;BME280;39559;48.630;9.162;2023-04-02T05:08:44;96903.06;;;4.99;100.00
498;BME280;39559;48.630;9.162;2023-04-02T05:14:39;96901.94;;;4.78;100.00
498;BME280;39559;48.630;9.162;2023-04-02T05:17:22;96908.38;;;4.63;100.00
498;BME280;39559;48.630;9.162;2023-04-02T05:22:43;96913.38;;;4.97;100.00
498;BME280;39559;48.630;9.162;2023-04-02T05:25:22;96920.06;;;5.03;100.00
498;BME280;39559;48.630;9.162;2023-04-02T05:28:02;96920.03;;;5.05;100.00
498;BME280;39559;48.630;9.162;2023-04-02T05:30:40;96922.13;;;4.92;100.00
498;BME280;39559;48.630;9.162;2023-04-02T05:33:26;96920.91;;;5.04;100.00
498;BME280;39559;48.630;9.162;2023-04-02T05:38:04;96926.97;;;5.03;100.00
498;BME280;39559;48.630;9.162;2023-04-02T05:40:40;96930.53;;;4.98;100.00
498;BME280;39559;48.630;9.162;2023-04-02T05:43:14;96927.28;;;5.20;100.00
498;BME280;39559;48.630;9.162;2023-04-02T05:45:43;96933.13;;;5.25;100.00
498;BME280;39559;48.630;9.162;2023-04-02T05:48:24;96942.41;;;5.31;100.00
498;BME280;39559;48.630;9.162;2023-04-02T05:50:53;96936.13;;;5.39;100.00
498;BME280;39559;48.630;9.162;2023-04-02T05:53:35;96946.34;;;5.43;100.00
498;BME280;39559;48.630;9.162;2023-04-02T05:56:10;96940.69;;;5.31;100.00
498;BME280;39559;48.630;9.162;2023-04-02T05:58:44;96943.03;;;5.39;100.00
498;BME280;39559;48.630;9.162;2023-04-02T06:02:40;96946.34;;;5.43;100.00
498;BME280;39559;48.630;9.162;2023-04-02T06:05:19;96951.31;;;5.49;100.00
498;BME280;39559;48.630;9.162;2023-04-02T06:07:52;96957.19;;;5.52;100.00
498;BME280;39559;48.630;9.162;2023-04-02T06:10:26;96959.44;;;5.63;100.00
498;BME280;39559;48.630;9.162;2023-04-02T06:15:24;96967.78;;;5.71;100.00
498;BME280;39559;48.630;9.162;2023-04-02T06:17:56;96974.53;;;5.75;100.00
498;BME280;39559;48.630;9.162;2023-04-02T06:20:23;96976.09;;;5.80;100.00
498;BME280;39559;48.630;9.162;2023-04-02T06:22:53;96973.28;;;5.87;100.00
498;BME280;39559;48.630;9.162;2023-04-02T06:29:04;96985.91;;;5.96;100.00
498;BME280;39559;48.630;9.162;2023-04-02T06:34:20;96983.94;;;6.05;100.00
498;BME280;39559;48.630;9.162;2023-04-02T06:36:48;96996.03;;;6.03;100.00
498;BME280;39559;48.630;9.162;2023-04-02T06:39:19;96991.63;;;6.06;100.00
498;BME280;39559;48.630;9.162;2023-04-02T06:42:34;96995.06;;;6.05;100.00
498;BME280;39559;48.630;9.162;2023-04-02T06:44:40;96999.03;;;6.15;100.00
498;BME280;39559;48.630;9.162;2023-04-02T06:50:18;97012.38;;;6.28;100.00
498;BME280;39559;48.630;9.162;2023-04-02T06:52:52;97020.09;;;6.28;100.00
498;BME280;39559;48.630;9.162;2023-04-02T06:58:02;97020.41;;;6.46;100.00
498;BME280;39559;48.630;9.162;2023-04-02T07:00:38;97026.88;;;6.58;100.00
498;BME280;39559;48.630;9.162;2023-04-02T07:03:07;97028.44;;;6.62;100.00
498;BME280;39559;48.630;9.162;2023-04-02T07:05:38;97033.38;;;6.69;100.00
498;BME280;39559;48.630;9.162;2023-04-02T07:08:04;97036.19;;;6.62;100.00
498;BME280;39559;48.630;9.162;2023-04-02T07:10:30;97043.56;;;6.72;100.00
498;BME280;39559;48.630;9.162;2023-04-02T07:14:02;97053.41;;;6.86;100.00
498;BME280;39559;48.630;9.162;2023-04-02T07:16:29;97051.75;;;6.84;100.00
498;BME280;39559;48.630;9.162;2023-04-02T07:18:56;97052.88;;;6.77;100.00
498;BME280;39559;48.630;9.162;2023-04-02T07:21:27;97054.19;;;6.88;100.00
498;BME280;39559;48.630;9.162;2023-04-02T07:23:53;97061.81;;;6.93;100.00
498;BME280;39559;48.630;9.162;2023-04-02T07:26:24;97063.19;;;7.02;100.00
498;BME280;39559;48.630;9.162;2023-04-02T07:28:52;97069.28;;;7.01;100.00
498;BME280;39559;48.630;9.162;2023-04-02T07:31:20;97072.78;;;6.98;100.00
498;BME280;39559;48.630;9.162;2023-04-02T07:33:46;97077.06;;;6.99;100.00
498;BME280;39559;48.630;9.162;2023-04-02T07:38:00;97072.88;;;7.20;100.00
498;BME280;39559;48.630;9.162;2023-04-02T07:40:26;97075.94;;;7.32;100.00
498;BME280;39559;48.630;9.162;2023-04-02T07:42:52;97082.56;;;7.39;100.00
498;BME280;39559;48.630;9.162;2023-04-02T07:45:17;97086.13;;;7.35;100.00
498;BME280;39559;48.630;9.162;2023-04-02T07:47:43;97087.94;;;7.33;100.00
498;BME280;39559;48.630;9.162;2023-04-02T07:50:09;97089.56;;;7.35;100.00
498;BME280;39559;48.630;9.162;2023-04-02T07:52:39;97090.84;;;7.47;100.00
498;BME280;39559;48.630;9.162;2023-04-02T07:55:08;97098.16;;;7.59;100.00
498;BME280;39559;48.630;9.162;2023-04-02T07:57:52;97098.06;;;7.62;100.00
498;BME280;39559;48.630;9.162;2023-04-02T08:02:20;97111.56;;;7.69;100.00
498;BME280;39559;48.630;9.162;2023-04-02T08:04:50;97112.66;;;7.63;100.00
498;BME280;39559;48.630;9.162;2023-04-02T08:07:17;97116.50;;;7.99;100.00
498;BME280;39559;48.630;9.162;2023-04-02T08:09:43;97123.13;;;8.06;100.00
498;BME280;39559;48.630;9.162;2023-04-02T08:12:13;97120.56;;;8.06;100.00
498;BME280;39559;48.630;9.162;2023-04-02T08:14:39;97133.91;;;8.17;100.00
498;BME280;39559;48.630;9.162;2023-04-02T08:17:04;97134.78;;;7.94;100.00
498;BME280;39559;48.630;9.162;2023-04-02T08:19:30;97137.34;;;7.94;100.00
498;BME280;39559;48.630;9.162;2023-04-02T08:21:57;97136.28;;;7.76;100.00
498;BME280;39559;48.630;9.162;2023-04-02T08:25:59;97145.03;;;7.74;100.00
498;BME280;39559;48.630;9.162;2023-04-02T08:28:25;97147.72;;;7.71;100.00
498;BME280;39559;48.630;9.162;2023-04-02T08:30:51;97147.22;;;7.84;100.00
498;BME280;39559;48.630;9.162;2023-04-02T08:33:18;97147.13;;;8.10;100.00
498;BME280;39559;48.630;9.162;2023-04-02T08:35:48;97154.44;;;8.44;100.00
498;BME280;39559;48.630;9.162;2023-04-02T08:38:15;97162.31;;;8.19;100.00
498;BME280;39559;48.630;9.162;2023-04-02T08:40:44;97161.94;;;8.28;100.00
498;BME280;39559;48.630;9.162;2023-04-02T08:50:02;97166.97;;;8.55;100.00
498;BME280;39559;48.630;9.162;2023-04-02T08:52:34;97168.00;;;8.51;100.00
498;BME280;39559;48.630;9.162;2023-04-02T08:55:11;97173.94;;;8.53;100.00
498;BME280;39559;48.630;9.162;2023-04-02T08:57:56;97169.47;;;8.78;100.00
498;BME280;39559;48.630;9.162;2023-04-02T09:00:34;97180.97;;;8.93;100.00
498;BME280;39559;48.630;9.162;2023-04-02T09:03:09;97174.34;;;8.64;100.00
498;BME280;39559;48.630;9.162;2023-04-02T09:05:39;97182.97;;;9.07;100.00
498;BME280;39559;48.630;9.162;2023-04-02T09:08:23;97183.72;;;8.89;100.00
498;BME280;39559;48.630;9.162;2023-04-02T09:10:53;97179.09;;;8.75;100.00
498;BME280;39559;48.630;9.162;2023-04-02T09:13:59;97191.47;;;8.68;100.00
498;BME280;39559;48.630;9.162;2023-04-02T09:16:59;97192.66;;;8.59;100.00
498;BME280;39559;48.630;9.162;2023-04-02T09:19:36;97189.31;;;8.57;100.00
498;BME280;39559;48.630;9.162;2023-04-02T09:22:31;97197.13;;;8.56;100.00
498;BME280;39559;48.630;9.162;2023-04-02T09:25:03;97195.91;;;8.87;100.00
498;BME280;39559;48.630;9.162;2023-04-02T09:27:34;97198.94;;;8.76;100.00
498;BME280;39559;48.630;9.162;2023-04-02T09:33:05;97214.06;;;9.07;100.00
498;BME280;39559;48.630;9.162;2023-04-02T09:43:19;97225.63;;;9.61;100.00
498;BME280;39559;48.630;9.162;2023-04-02T09:51:21;97237.97;;;9.55;100.00
498;BME280;39559;48.630;9.162;2023-04-02T09:54:11;97229.50;;;9.51;100.00
498;BME280;39559;48.630;9.162;2023-04-02T09:56:39;97236.88;;;9.81;100.00
498;BME280;39559;48.630;9.162;2023-04-02T09:59:17;97247.19;;;9.41;100.00
498;BME280;39559;48.630;9.162;2023-04-02T10:02:13;97240.13;;;9.86;100.00
498;BME280;39559;48.630;9.162;2023-04-02T10:04:55;97243.84;;;9.80;100.00
498;BME280;39559;48.630;9.162;2023-04-02T10:07:40;97244.50;;;10.05;100.00
498;BME280;39559;48.630;9.162;2023-04-02T10:10:43;97235.66;;;10.09;100.00
498;BME280;39559;48.630;9.162;2023-04-02T10:16:02;97250.28;;;9.91;100.00
498;BME280;39559;48.630;9.162;2023-04-02T10:21:00;97254.94;;;10.43;100.00
498;BME280;39559;48.630;9.162;2023-04-02T10:29:18;97261.25;;;10.56;100.00
498;BME280;39559;48.630;9.162;2023-04-02T10:34:43;97257.47;;;11.00;100.00
498;BME280;39559;48.630;9.162;2023-04-02T10:40:50;97267.34;;;10.55;100.00
498;BME280;39559;48.630;9.162;2023-04-02T10:46:43;97271.19;;;10.65;100.00
498;BME280;39559;48.630;9.162;2023-04-02T10:53:32;97276.59;;;10.02;100.00
498;BME280;39559;48.630;9.162;2023-04-02T10:56:01;97283.16;;;9.90;100.00
498;BME280;39559;48.630;9.162;2023-04-02T10:58:51;97292.13;;;9.63;100.00
498;BME280;39559;48.630;9.162;2023-04-02T11:01:26;97296.31;;;9.45;100.00
498;BME280;39559;48.630;9.162;2023-04-02T11:04:02;97292.19;;;9.18;100.00
498;BME280;39559;48.630;9.162;2023-04-02T11:09:56;97313.09;;;8.92;100.00
498;BME280;39559;48.630;9.162;2023-04-02T11:16:25;97307.25;;;8.87;100.00
498;BME280;39559;48.630;9.162;2023-04-02T11:21:47;97313.81;;;8.95;100.00
498;BME280;39559;48.630;9.162;2023-04-02T11:29:40;97316.13;;;9.03;100.00
498;BME280;39559;48.630;9.162;2023-04-02T11:37:49;97332.84;;;9.16;100.00
498;BME280;39559;48.630;9.162;2023-04-02T11:42:49;97344.41;;;9.08;100.00
498;BME280;39559;48.630;9.162;2023-04-02T11:50:50;97342.38;;;9.38;100.00
498;BME280;39559;48.630;9.162;2023-04-02T11:55:43;97348.22;;;9.21;100.00
498;BME280;39559;48.630;9.162;2023-04-02T12:02:02;97353.53;;;9.18;100.00
498;BME280;39559;48.630;9.162;2023-04-02T12:07:27;97353.09;;;9.51;100.00
498;BME280;39559;48.630;9.162;2023-04-02T12:10:04;97356.66;;;9.48;100.00
498;BME280;39559;48.630;9.162;2023-04-02T12:12:39;97367.75;;;9.30;100.00
498;BME280;39559;48.630;9.162;2023-04-02T12:15:27;97366.84;;;9.09;100.00
498;BME280;39559;48.630;9.162;2023-04-02T12:18:02;97368.13;;;9.43;100.00
498;BME280;39559;48.630;9.162;2023-04-02T12:20:29;97362.31;;;9.36;100.00
498;BME280;39559;48.630;9.162;2023-04-02T12:22:56;97368.91;;;9.45;100.00
498;BME280;39559;48.630;9.162;2023-04-02T12:26:37;97368.84;;;9.46;100.00
498;BME280;39559;48.630;9.162;2023-04-02T12:28:38;97360.69;;;9.55;100.00
498;BME280;39559;48.630;9.162;2023-04-02T12:31:14;97372.16;;;9.50;100.00
498;BME280;39559;48.630;9.162;2023-04-02T12:33:44;97376.66;;;9.67;100.00
498;BME280;39559;48.630;9.162;2023-04-02T12:38:56;97371.47;;;9.87;100.00
498;BME280;39559;48.630;9.162;2023-04-02T12:41:29;97375.00;;;10.07;100.00
498;BME280;39559;48.630;9.162;2023-04-02T12:44:01;97379.59;;;10.00;100.00
498;BME280;39559;48.630;9.162;2023-04-02T12:46:28;97384.34;;;10.31;100.00
498;BME280;39559;48.630;9.162;2023-04-02T12:49:43;97381.09;;;10.66;100.00
498;BME280;39559;48.630;9.162;2023-04-02T12:52:12;97381.91;;;10.87;100.00
498;BME280;39559;48.630;9.162;2023-04-02T12:54:53;97383.38;;;10.73;100.00
498;BME280;39559;48.630;9.162;2023-04-02T13:00:01;97385.53;;;11.40;100.00
498;BME280;39559;48.630;9.162;2023-04-02T13:02:43;97381.47;;;11.34;99.48
498;BME280;39559;48.630;9.162;2023-04-02T13:05:10;97380.63;;;11.87;100.00
498;BME280;39559;48.630;9.162;2023-04-02T13:07:36;97384.88;;;11.90;94.50
498;BME280;39559;48.630;9.162;2023-04-02T13:10:23;97379.78;;;12.22;97.37
498;BME280;39559;48.630;9.162;2023-04-02T13:13:43;97384.03;;;12.24;94.37
498;BME280;39559;48.630;9.162;2023-04-02T13:18:43;97387.47;;;11.53;93.06
498;BME280;39559;48.630;9.162;2023-04-02T13:23:42;97386.41;;;11.58;99.55
498;BME280;39559;48.630;9.162;2023-04-02T13:29:09;97381.66;;;11.29;96.55
498;BME280;39559;48.630;9.162;2023-04-02T13:31:41;97389.19;;;11.89;97.22
498;BME280;39559;48.630;9.162;2023-04-02T13:34:06;97391.72;;;11.74;89.80
498;BME280;39559;48.630;9.162;2023-04-02T13:37:40;97390.75;;;11.21;87.93
498;BME280;39559;48.630;9.162;2023-04-02T13:40:06;97390.63;;;11.05;91.10
498;BME280;39559;48.630;9.162;2023-04-02T13:42:32;97390.31;;;11.11;85.14
498;BME280;39559;48.630;9.162;2023-04-02T13:44:58;97391.25;;;11.10;89.06
498;BME280;39559;48.630;9.162;2023-04-02T13:47:23;97390.06;;;11.17;91.12
498;BME280;39559;48.630;9.162;2023-04-02T13:49:49;97392.59;;;11.00;95.17
498;BME280;39559;48.630;9.162;2023-04-02T13:52:15;97390.50;;;11.08;93.76
498;BME280;39559;48.630;9.162;2023-04-02T13:54:50;97396.38;;;10.92;94.63
498;BME280;39559;48.630;9.162;2023-04-02T13:57:17;97393.28;;;11.03;98.57
498;BME280;39559;48.630;9.162;2023-04-02T14:01:40;97401.38;;;10.97;97.10
498;BME280;39559;48.630;9.162;2023-04-02T14:04:08;97404.94;;;11.13;95.10
498;BME280;39559;48.630;9.162;2023-04-02T14:09:46;97414.56;;;10.92;99.80
498;BME280;39559;48.630;9.162;2023-04-02T14:13:31;97416.22;;;10.74;96.06
498;BME280;39559;48.630;9.162;2023-04-02T14:25:56;97439.09;;;10.25;99.83
498;BME280;39559;48.630;9.162;2023-04-02T14:29:09;97440.84;;;9.82;100.00
498;BME280;39559;48.630;9.162;2023-04-02T14:31:43;97443.75;;;9.52;100.00
498;BME280;39559;48.630;9.162;2023-04-02T14:37:19;97449.00;;;9.05;100.00
498;BME280;39559;48.630;9.162;2023-04-02T14:42:46;97462.72;;;9.07;100.00
498;BME280;39559;48.630;9.162;2023-04-02T14:49:35;97464.00;;;8.97;100.00
498;BME280;39559;48.630;9.162;2023-04-02T14:52:09;97463.25;;;8.70;100.00
498;BME280;39559;48.630;9.162;2023-04-02T14:57:13;97473.31;;;8.52;100.00
498;BME280;39559;48.630;9.162;2023-04-02T14:59:54;97482.78;;;8.53;100.00
498;BME280;39559;48.630;9.162;2023-04-02T15:05:46;97481.78;;;8.57;100.00
498;BME280;39559;48.630;9.162;2023-04-02T15:08:28;97476.66;;;8.56;100.00
498;BME280;39559;48.630;9.162;2023-04-02T15:16:21;97488.53;;;8.35;100.00
498;BME280;39559;48.630;9.162;2023-04-02T15:19:17;97498.22;;;8.30;100.00
498;BME280;39559;48.630;9.162;2023-04-02T15:28:14;97508.66;;;8.26;100.00
498;BME280;39559;48.630;9.162;2023-04-02T15:30:47;97508.06;;;8.45;100.00
498;BME280;39559;48.630;9.162;2023-04-02T15:43:30;97529.50;;;8.22;100.00
498;BME280;39559;48.630;9.162;2023-04-02T15:51:35;97533.09;;;8.18;100.00
498;BME280;39559;48.630;9.162;2023-04-02T16:01:37;97550.13;;;7.97;100.00
498;BME280;39559;48.630;9.162;2023-04-02T16:10:27;97561.03;;;8.06;100.00
498;BME280;39559;48.630;9.162;2023-04-02T16:12:51;97567.56;;;7.90;100.00
498;BME280;39559;48.630;9.162;2023-04-02T16:15:27;97571.00;;;7.91;100.00
498;BME280;39559;48.630;9.162;2023-04-02T16:18:00;97566.38;;;7.72;100.00
498;BME280;39559;48.630;9.162;2023-04-02T16:20:33;97571.00;;;7.62;100.00
498;BME280;39559;48.630;9.162;2023-04-02T16:25:28;97580.16;;;7.43;100.00
498;BME280;39559;48.630;9.162;2023-04-02T16:31:35;97590.28;;;7.50;100.00
498;BME280;39559;48.630;9.162;2023-04-02T16:34:06;97599.50;;;7.29;100.00
498;BME280;39559;48.630;9.162;2023-04-02T16:36:47;97595.16;;;7.30;100.00
498;BME280;39559;48.630;9.162;2023-04-02T17:01:20;97656.59;;;6.48;100.00
498;BME280;39559;48.630;9.162;2023-04-02T17:07:08;97659.22;;;6.47;100.00
498;BME280;39559;48.630;9.162;2023-04-02T17:09:49;97659.41;;;6.39;100.00
498;BME280;39559;48.630;9.162;2023-04-02T17:13:42;97661.97;;;6.41;100.00
498;BME280;39559;48.630;9.162;2023-04-02T17:18:55;97674.31;;;6.26;100.00
498;BME280;39559;48.630;9.162;2023-04-02T17:21:27;97682.06;;;6.25;100.00
498;BME280;39559;48.630;9.162;2023-04-02T17:23:56;97685.44;;;6.28;100.00
498;BME280;39559;48.630;9.162;2023-04-02T17:26:31;97692.34;;;6.28;100.00
498;BME280;39559;48.630;9.162;2023-04-02T17:29:00;97694.81;;;6.31;100.00
498;BME280;39559;48.630;9.162;2023-04-02T17:31:33;97699.91;;;6.36;100.00
498;BME280;39559;48.630;9.162;2023-04-02T17:34:14;97707.91;;;6.23;100.00
498;BME280;39559;48.630;9.162;2023-04-02T17:37:34;97713.09;;;6.22;100.00
498;BME280;39559;48.630;9.162;2023-04-02T17:40:07;97723.78;;;6.03;100.00
498;BME280;39559;48.630;9.162;2023-04-02T17:45:50;97729.88;;;5.99;100.00
498;BME280;39559;48.630;9.162;2023-04-02T17:51:05;97734.38;;;5.88;100.00
498;BME280;39559;48.630;9.162;2023-04-02T18:01:41;97745.81;;;5.73;100.00
498;BME280;39559;48.630;9.162;2023-04-02T18:25:34;97815.09;;;5.40;100.00
498;BME280;39559;48.630;9.162;2023-04-02T18:39:20;97838.66;;;5.17;100.00
498;BME280;39559;48.630;9.162;2023-04-02T18:51:46;97860.16;;;5.13;100.00
498;BME280;39559;48.630;9.162;2023-04-02T18:56:54;97877.13;;;5.26;100.00
498;BME280;39559;48.630;9.162;2023-04-02T18:59:38;97880.97;;;4.97;100.00
498;BME280;39559;48.630;9.162;2023-04-02T19:05:16;97889.78;;;4.79;100.00
498;BME280;39559;48.630;9.162;2023-04-02T19:07:47;97898.53;;;4.68;100.00
498;BME280;39559;48.630;9.162;2023-04-02T19:13:13;97900.16;;;4.75;100.00
498;BME280;39559;48.630;9.162;2023-04-02T19:24:48;97928.66;;;4.56;100.00
498;BME280;39559;48.630;9.162;2023-04-02T19:33:35;97955.47;;;4.37;100.00
498;BME280;39559;48.630;9.162;2023-04-02T19:45:53;97980.66;;;3.96;100.00
498;BME280;39559;48.630;9.162;2023-04-02T19:50:44;97978.06;;;4.01;100.00
498;BME280;39559;48.630;9.162;2023-04-02T19:53:11;97991.84;;;3.91;100.00
498;BME280;39559;48.630;9.162;2023-04-02T19:55:37;97992.75;;;3.83;100.00
498;BME280;39559;48.630;9.162;2023-04-02T19:58:03;97995.25;;;3.93;100.00
498;BME280;39559;48.630;9.162;2023-04-02T20:01:08;98000.44;;;3.83;100.00
498;BME280;39559;48.630;9.162;2023-04-02T20:03:33;97997.16;;;3.66;100.00
498;BME280;39559;48.630;9.162;2023-04-02T20:05:59;98010.13;;;3.46;100.00
498;BME280;39559;48.630;9.162;2023-04-02T20:08:26;98010.97;;;3.48;100.00
498;BME280;39559;48.630;9.162;2023-04-02T20:10:52;98014.38;;;3.49;100.00
498;BME280;39559;48.630;9.162;2023-04-02T20:13:17;98020.41;;;3.44;100.00
498;BME280;39559;48.630;9.162;2023-04-02T20:15:43;98018.72;;;3.36;100.00
498;BME280;39559;48.630;9.162;2023-04-02T20:18:09;98026.41;;;3.42;100.00
498;BME280;39559;48.630;9.162;2023-04-02T20:20:35;98028.22;;;3.20;100.00
498;BME280;39559;48.630;9.162;2023-04-02T20:25:07;98020.41;;;3.40;100.00
498;BME280;39559;48.630;9.162;2023-04-02T20:27:32;98026.50;;;3.22;100.00
498;BME280;39559;48.630;9.162;2023-04-02T20:29:58;98035.03;;;3.33;100.00
498;BME280;39559;48.630;9.162;2023-04-02T20:32:23;98034.22;;;3.20;100.00
498;BME280;39559;48.630;9.162;2023-04-02T20:34:49;98034.19;;;3.25;100.00
498;BME280;39559;48.630;9.162;2023-04-02T20:37:14;98041.88;;;3.22;100.00
498;BME280;39559;48.630;9.162;2023-04-02T20:39:40;98047.91;;;3.16;100.00